createdAt,value
2022-09-28T17:46:47.321Z,44.26
2022-09-28T17:49:35.217Z,42.69
2022-09-28T17:52:23.220Z,41.64
2022-09-28T17:55:11.906Z,41.43
2022-09-28T17:58:01.557Z,41.13
2022-09-28T18:00:52.443Z,40.66
2022-09-28T18:03:40.298Z,40.73
2022-09-28T18:06:28.201Z,40.67
2022-09-28T18:09:16.160Z,40.52
2022-09-28T18:12:05.651Z,40.31
2022-09-28T18:14:53.765Z,40.18
2022-09-28T18:17:41.608Z,40.20
2022-09-28T18:20:29.660Z,40.00
2022-09-28T18:23:17.766Z,40.52
2022-09-28T18:26:13.948Z,40.36
2022-09-28T18:29:01.677Z,39.96
2022-09-28T18:31:49.488Z,40.14
2022-09-28T18:34:38.025Z,40.04
2022-09-28T18:37:25.768Z,40.29
2022-09-28T18:40:13.899Z,40.10
2022-09-28T18:43:02.790Z,40.27
2022-09-28T18:45:50.516Z,40.07
2022-09-28T18:48:40.487Z,40.07
2022-09-28T18:51:28.530Z,40.26
2022-09-28T18:54:17.006Z,40.06
2022-09-28T18:57:05.752Z,40.25
2022-09-28T18:59:53.525Z,40.06
2022-09-28T19:02:41.381Z,40.25
2022-09-28T19:05:29.247Z,40.02
2022-09-28T19:08:17.002Z,40.14
2022-09-28T19:11:14.677Z,40.48
2022-09-28T19:14:03.596Z,40.02
2022-09-28T19:16:51.329Z,40.14
2022-09-28T19:19:39.320Z,40.34
2022-09-28T19:22:27.128Z,40.09
2022-09-28T19:25:15.779Z,40.17
2022-09-28T19:28:03.493Z,40.14
2022-09-28T19:30:59.272Z,40.07
2022-09-28T19:33:48.136Z,40.02
2022-09-28T19:36:35.913Z,40.20
2022-09-28T19:39:23.698Z,40.12
2022-09-28T19:42:11.414Z,40.44
2022-09-28T19:44:59.159Z,40.02
2022-09-28T19:47:49.101Z,40.24
2022-09-28T19:50:36.910Z,40.02
2022-09-28T19:53:26.849Z,40.25
2022-09-28T19:56:16.533Z,40.07
2022-09-28T19:59:04.706Z,39.96
2022-09-28T20:01:55.719Z,40.18
2022-09-28T20:04:43.650Z,39.97
2022-09-28T20:07:33.285Z,39.96
2022-09-28T20:10:21.099Z,40.00
2022-09-28T20:13:08.840Z,40.07
2022-09-28T20:15:56.621Z,40.04
2022-09-28T20:18:50.257Z,40.04
2022-09-28T20:21:38.086Z,40.30
2022-09-28T20:24:25.966Z,39.93
2022-09-28T20:27:13.768Z,40.27
2022-09-28T20:30:01.768Z,40.22
2022-09-28T20:32:49.782Z,39.99
2022-09-28T20:35:40.350Z,40.22
2022-09-28T20:38:28.072Z,40.31
2022-09-28T20:41:18.431Z,40.13
2022-09-28T20:44:06.883Z,40.21
2022-09-28T20:46:56.552Z,40.01
2022-09-28T20:49:44.618Z,40.22
2022-09-28T20:52:32.429Z,40.08
2022-09-28T20:55:20.206Z,40.13
2022-09-28T20:58:07.954Z,40.48
2022-09-28T21:01:20.890Z,40.30
2022-09-28T21:04:10.289Z,40.44
2022-09-28T21:06:57.999Z,40.20
2022-09-28T21:09:45.805Z,40.20
2022-09-28T21:12:34.193Z,40.11
2022-09-28T21:15:21.907Z,40.18
2022-09-28T21:18:09.653Z,40.18
2022-09-28T21:20:57.433Z,40.24
2022-09-28T21:23:45.494Z,40.09
2022-09-28T21:26:34.944Z,39.96
2022-09-28T21:29:22.705Z,39.99
2022-09-28T21:32:10.471Z,39.99
2022-09-28T21:34:58.285Z,40.08
2022-09-28T21:37:46.568Z,40.04
2022-09-28T21:40:34.428Z,40.16
2022-09-28T21:43:23.133Z,40.12
2022-09-28T21:46:11.297Z,40.02
2022-09-28T21:48:59.269Z,40.14
2022-09-28T21:51:47.066Z,39.98
2022-09-28T21:54:37.233Z,40.20
2022-09-28T21:57:24.981Z,40.05
2022-09-28T22:00:18.552Z,40.10
2022-09-28T22:03:06.439Z,40.04
2022-09-28T22:05:54.266Z,39.89
2022-09-28T22:08:42.289Z,40.28
2022-09-28T22:11:30.021Z,40.17
2022-09-28T22:14:17.788Z,39.92
2022-09-28T22:17:05.504Z,40.03
2022-09-28T22:19:53.339Z,39.87
2022-09-28T22:22:41.057Z,40.10
2022-09-28T22:25:28.827Z,40.11
2022-09-28T22:28:16.573Z,39.95
2022-09-28T22:31:05.069Z,39.95
2022-09-28T22:33:53.524Z,40.05
2022-09-28T22:36:41.308Z,39.98
2022-09-28T22:39:34.335Z,40.03
2022-09-28T22:42:25.138Z,40.02
2022-09-28T22:45:12.934Z,39.91
2022-09-28T22:48:00.800Z,39.97
2022-09-28T22:50:50.671Z,40.10
2022-09-28T22:53:38.522Z,40.03
2022-09-28T22:56:26.325Z,40.02
2022-09-28T22:59:14.089Z,40.22
2022-09-28T23:02:01.887Z,40.13
2022-09-28T23:04:49.692Z,40.05
2022-09-28T23:07:37.970Z,40.06
2022-09-28T23:10:25.719Z,39.95
2022-09-28T23:13:15.520Z,40.13
2022-09-28T23:16:10.609Z,39.78
2022-09-28T23:18:58.426Z,40.03
2022-09-28T23:21:46.216Z,39.92
2022-09-28T23:24:33.955Z,40.08
2022-09-28T23:27:21.735Z,39.90
2022-09-28T23:30:10.073Z,39.99
2022-09-28T23:32:57.825Z,40.01
2022-09-28T23:35:45.759Z,40.12
2022-09-28T23:38:33.518Z,40.16
2022-09-28T23:41:21.320Z,39.91
2022-09-28T23:44:09.084Z,40.03
2022-09-28T23:46:57.195Z,40.11
2022-09-28T23:49:44.981Z,40.12
2022-09-28T23:52:33.092Z,40.10
2022-09-28T23:55:20.889Z,40.27
2022-09-28T23:58:09.339Z,40.19
